Time;durP1;ratioP1;P1;durP2;ratioP2;P2;SDS_P1;SDS_P2;PMS_P1;PMS_P2;Temp;Humidity;BMP_temperature;BMP_pressure;BME280_temperature;BME280_humidity;BME280_pressure;Samples;Min_cycle;Max_cycle;Signal;HPM_P1;HPM_P2
2020/12/27 00:02:11;;;;;;;0.32;0.32;;;0.60;99.90;;;;;;4955879;28;20113;-88
2020/12/27 00:04:38;;;;;;;0.30;0.30;;;0.50;99.90;;;;;;4965191;28;20030;-88
2020/12/27 00:07:07;;;;;;;0.77;0.77;;;0.60;99.90;;;;;;4963087;28;20055;-88
2020/12/27 00:09:37;;;;;;;0.60;0.60;;;0.60;99.90;;;;;;4962864;28;20064;-88
2020/12/27 00:12:03;;;;;;;0.38;0.38;;;0.70;99.90;;;;;;4970466;28;20082;-88
2020/12/27 00:14:29;;;;;;;0.10;0.10;;;0.70;99.90;;;;;;4970092;28;20033;-88
2020/12/27 00:16:55;;;;;;;0.17;0.17;;;0.60;99.90;;;;;;4952431;28;20038;-88
2020/12/27 00:19:20;;;;;;;2.65;0.75;;;0.70;99.90;;;;;;4971132;28;20106;-89
2020/12/27 00:21:46;;;;;;;0.68;0.68;;;0.70;99.90;;;;;;4970098;28;20026;-89
2020/12/27 00:24:12;;;;;;;1.15;0.38;;;0.70;99.90;;;;;;4952945;28;20031;-89
2020/12/27 00:26:38;;;;;;;0.20;0.20;;;0.80;99.90;;;;;;4952501;28;20031;-88
2020/12/27 00:29:04;;;;;;;0.22;0.22;;;0.70;99.90;;;;;;4973862;28;20106;-89
2020/12/27 00:31:30;;;;;;;0.23;0.23;;;0.70;99.90;;;;;;4952235;28;20130;-87
2020/12/27 00:33:56;;;;;;;0.13;0.13;;;0.60;99.90;;;;;;4956397;28;20027;-87
2020/12/27 00:36:22;;;;;;;0.10;0.10;;;0.60;99.90;;;;;;4969822;28;20045;-88
2020/12/27 00:38:48;;;;;;;0.28;0.28;;;0.60;99.90;;;;;;4953518;28;20556;-88
2020/12/27 00:41:24;;;;;;;1.23;1.13;;;0.60;99.90;;;;;;4951919;28;20049;-87
2020/12/27 00:43:52;;;;;;;1.10;1.08;;;0.60;99.90;;;;;;4958556;28;20034;-87
2020/12/27 00:46:19;;;;;;;0.22;0.22;;;0.60;99.90;;;;;;4980335;28;20030;-88
2020/12/27 00:48:44;;;;;;;;;;;0.50;99.90;;;;;;4973013;28;20030;-88
2020/12/27 00:51:10;;;;;;;1.97;1.53;;;0.40;99.90;;;;;;4969790;28;20265;-87
2020/12/27 00:53:36;;;;;;;0.10;0.10;;;0.40;99.90;;;;;;4971337;28;20026;-88
2020/12/27 00:56:02;;;;;;;0.45;0.45;;;0.40;99.90;;;;;;4972347;28;20026;-88
2020/12/27 00:58:30;;;;;;;0.10;0.10;;;0.30;99.90;;;;;;4963607;28;20530;-89
2020/12/27 01:00:56;;;;;;;0.43;0.43;;;0.10;99.90;;;;;;4962641;28;20018;-88
2020/12/27 01:03:23;;;;;;;0.10;0.10;;;0.30;99.90;;;;;;4958677;28;20030;-89
2020/12/27 01:05:49;;;;;;;0.10;0.10;;;0.40;99.90;;;;;;4964440;28;20397;-89
2020/12/27 01:08:16;;;;;;;0.60;0.60;;;0.50;99.90;;;;;;4973807;28;20038;-88
2020/12/27 01:10:42;;;;;;;0.52;0.52;;;0.40;99.90;;;;;;4973724;28;20019;-89
2020/12/27 01:13:08;;;;;;;0.82;0.82;;;0.50;99.90;;;;;;4975228;28;20034;-89
2020/12/27 01:15:33;;;;;;;0.47;0.47;;;0.50;99.90;;;;;;4983547;28;20519;-89
2020/12/27 01:17:59;;;;;;;0.82;0.82;;;0.40;99.90;;;;;;4964259;28;20030;-89
2020/12/27 01:20:25;;;;;;;0.35;0.35;;;0.30;99.90;;;;;;4942303;28;20077;-89
2020/12/27 01:22:51;;;;;;;0.10;0.10;;;0.30;99.90;;;;;;4957716;28;20089;-88
2020/12/27 01:25:16;;;;;;;0.52;0.52;;;0.30;99.90;;;;;;4976743;28;20019;-88
2020/12/27 01:27:42;;;;;;;0.10;0.10;;;0.30;99.90;;;;;;4973876;28;20062;-89
2020/12/27 01:30:08;;;;;;;0.20;0.20;;;0.20;99.90;;;;;;4957338;28;20042;-90
2020/12/27 01:32:34;;;;;;;0.45;0.45;;;0.30;99.90;;;;;;4974262;28;20396;-89
2020/12/27 01:35:00;;;;;;;0.10;0.10;;;0.40;99.90;;;;;;4953068;29;20469;-89
2020/12/27 01:37:25;;;;;;;0.32;0.32;;;0.50;99.90;;;;;;4957519;28;20019;-89
2020/12/27 01:39:51;;;;;;;0.32;0.32;;;0.50;99.90;;;;;;4958838;28;20054;-90
2020/12/27 01:42:17;;;;;;;0.28;0.28;;;0.60;99.90;;;;;;4964434;28;20019;-88
2020/12/27 01:44:43;;;;;;;0.15;0.15;;;0.60;99.90;;;;;;4983541;28;20147;-89
2020/12/27 01:47:23;;;;;;;0.73;0.73;;;0.60;99.90;;;;;;4976954;28;20023;-89
2020/12/27 01:49:50;;;;;;;0.52;0.52;;;0.60;99.90;;;;;;4956621;28;20472;-89
2020/12/27 01:52:16;;;;;;;0.73;0.73;;;0.70;99.90;;;;;;4955620;28;20034;-89
2020/12/27 01:54:43;;;;;;;0.10;0.10;;;0.80;99.90;;;;;;4975765;28;20642;-88
2020/12/27 01:57:15;;;;;;;0.32;0.32;;;0.80;99.90;;;;;;4963529;28;20034;-89
2020/12/27 01:59:41;;;;;;;0.28;0.28;;;0.80;99.90;;;;;;4965992;28;20031;-88
2020/12/27 02:02:08;;;;;;;0.77;0.60;;;0.80;99.90;;;;;;4978538;28;20050;-89
2020/12/27 02:04:34;;;;;;;0.75;0.75;;;0.70;99.90;;;;;;4974684;28;20034;-89
2020/12/27 02:07:03;;;;;;;0.60;0.60;;;0.70;99.90;;;;;;4954175;28;20054;-88
2020/12/27 02:09:30;;;;;;;0.15;0.15;;;0.70;99.90;;;;;;4981034;28;20042;-88
2020/12/27 02:12:07;;;;;;;0.20;0.20;;;0.80;99.90;;;;;;4940839;28;20023;-87
2020/12/27 02:14:33;;;;;;;0.30;0.30;;;0.70;99.90;;;;;;4975726;28;20041;-87
2020/12/27 02:17:00;;;;;;;1.27;1.17;;;0.70;99.90;;;;;;4971789;28;20027;-88
2020/12/27 02:19:26;;;;;;;;;;;0.70;99.90;;;;;;4980922;28;20507;-88
2020/12/27 02:21:52;;;;;;;0.10;0.10;;;0.70;99.90;;;;;;4957589;28;19961;-87
2020/12/27 02:24:18;;;;;;;0.55;0.55;;;0.60;99.90;;;;;;4970991;28;20048;-88
2020/12/27 02:27:04;;;;;;;0.20;0.20;;;0.80;99.90;;;;;;4971714;28;20075;-87
2020/12/27 02:29:32;;;;;;;;;;;0.70;99.90;;;;;;4960873;28;20057;-88
2020/12/27 02:31:58;;;;;;;0.52;0.52;;;0.60;99.90;;;;;;4956392;28;19909;-88
2020/12/27 02:34:24;;;;;;;0.13;0.13;;;0.60;99.90;;;;;;4955452;28;20023;-88
2020/12/27 02:36:50;;;;;;;0.30;0.30;;;0.60;99.90;;;;;;4958441;28;20035;-87
2020/12/27 02:39:18;;;;;;;0.20;0.20;;;0.60;99.90;;;;;;4953826;28;20046;-87
2020/12/27 02:41:47;;;;;;;0.10;0.10;;;0.60;99.90;;;;;;4975547;28;20066;-87
2020/12/27 02:44:13;;;;;;;0.10;0.10;;;0.50;99.90;;;;;;4970516;28;20118;-87
2020/12/27 02:46:39;;;;;;;0.10;0.10;;;0.60;99.90;;;;;;4954658;28;20031;-87
2020/12/27 02:49:05;;;;;;;0.43;0.43;;;0.60;99.90;;;;;;4972143;28;20030;-88
2020/12/27 02:51:31;;;;;;;0.10;0.10;;;0.60;99.90;;;;;;4978236;28;20033;-87
2020/12/27 02:53:58;;;;;;;0.52;0.52;;;0.60;99.90;;;;;;4954047;28;20158;-87
2020/12/27 02:56:28;;;;;;;0.80;0.80;;;0.60;99.90;;;;;;4970772;28;20027;-87
2020/12/27 02:59:03;;;;;;;0.10;0.10;;;0.80;99.90;;;;;;4952952;28;20400;-88
2020/12/27 03:01:29;;;;;;;0.32;0.32;;;0.80;99.90;;;;;;4953410;28;20045;-87
2020/12/27 03:03:55;;;;;;;0.28;0.28;;;0.90;99.90;;;;;;4979610;28;20499;-86
2020/12/27 03:06:21;;;;;;;0.60;0.60;;;0.90;99.90;;;;;;4956304;28;20058;-87
2020/12/27 03:08:54;;;;;;;0.20;0.20;;;0.80;99.90;;;;;;4975408;28;20027;-87
2020/12/27 03:11:24;;;;;;;0.20;0.20;;;0.90;99.90;;;;;;4942877;28;20223;-86
2020/12/27 03:13:51;;;;;;;0.55;0.55;;;0.90;99.90;;;;;;4975495;28;20131;-87
2020/12/27 03:16:18;;;;;;;0.10;0.10;;;0.90;99.90;;;;;;4973689;28;20113;-88
2020/12/27 03:18:44;;;;;;;0.10;0.10;;;0.90;99.90;;;;;;4969897;28;20047;-87
2020/12/27 03:21:09;;;;;;;0.43;0.43;;;0.90;99.90;;;;;;4961943;28;20077;-88
2020/12/27 03:23:35;;;;;;;5.65;1.70;;;0.90;99.90;;;;;;4971193;28;20019;-87
2020/12/27 03:26:01;;;;;;;1.23;1.13;;;1.00;99.90;;;;;;4952702;28;20061;-86
2020/12/27 03:28:27;;;;;;;0.43;0.43;;;1.00;99.90;;;;;;4969872;28;20033;-87
2020/12/27 03:30:53;;;;;;;0.10;0.10;;;0.90;99.90;;;;;;4962354;28;20062;-87
2020/12/27 03:33:19;;;;;;;0.10;0.10;;;0.90;99.90;;;;;;4986145;28;20034;-86
2020/12/27 03:35:44;;;;;;;0.10;0.10;;;0.90;99.90;;;;;;4955328;28;20630;-86
2020/12/27 03:38:10;;;;;;;0.20;0.20;;;0.90;99.90;;;;;;4970143;28;20030;-86
2020/12/27 03:40:36;;;;;;;0.93;0.93;;;0.80;99.90;;;;;;4970543;28;20066;-87
2020/12/27 03:43:02;;;;;;;0.20;0.20;;;0.80;99.90;;;;;;4959157;28;20125;-88
2020/12/27 03:45:27;;;;;;;0.10;0.10;;;0.70;99.90;;;;;;4970639;28;20022;-88
2020/12/27 03:47:54;;;;;;;1.00;1.00;;;0.70;99.90;;;;;;4969591;28;20118;-88
2020/12/27 03:50:22;;;;;;;0.13;0.13;;;0.70;99.90;;;;;;4969976;28;20397;-87
2020/12/27 03:52:48;;;;;;;0.10;0.10;;;0.80;99.90;;;;;;4974749;28;20087;-89
2020/12/27 03:55:14;;;;;;;0.63;0.63;;;0.80;99.90;;;;;;4971867;28;20058;-88
2020/12/27 03:57:40;;;;;;;0.10;0.10;;;0.80;99.90;;;;;;4970788;28;20030;-88
2020/12/27 04:00:06;;;;;;;0.20;0.20;;;0.80;99.90;;;;;;4951602;28;20022;-87
2020/12/27 04:02:31;;;;;;;0.52;0.52;;;0.80;99.90;;;;;;4982312;28;20023;-87
2020/12/27 04:04:57;;;;;;;0.10;0.10;;;0.80;99.90;;;;;;4969396;28;20027;-86
2020/12/27 04:07:23;;;;;;;0.13;0.13;;;0.80;99.90;;;;;;4969067;28;20042;-89
2020/12/27 04:09:49;;;;;;;0.10;0.10;;;0.80;99.90;;;;;;4959228;28;20508;-87
2020/12/27 04:12:15;;;;;;;1.30;0.32;;;0.80;99.90;;;;;;4952427;28;20054;-87
2020/12/27 04:14:40;;;;;;;0.70;0.70;;;0.80;99.90;;;;;;4952677;28;20057;-88
2020/12/27 04:17:07;;;;;;;0.10;0.10;;;0.70;99.90;;;;;;4969374;28;20661;-88
2020/12/27 04:19:32;;;;;;;0.20;0.20;;;0.80;99.90;;;;;;4969663;28;20437;-88
2020/12/27 04:21:58;;;;;;;0.93;0.28;;;0.80;99.90;;;;;;4952523;28;20081;-87
2020/12/27 04:24:24;;;;;;;0.20;0.20;;;0.80;99.90;;;;;;4973280;28;20030;-87
2020/12/27 04:26:50;;;;;;;0.35;0.35;;;0.90;99.90;;;;;;4974272;28;20042;-88
2020/12/27 04:29:15;;;;;;;3.83;0.70;;;0.90;99.90;;;;;;4972793;28;20066;-88
2020/12/27 04:31:41;;;;;;;0.10;0.10;;;0.90;99.90;;;;;;4969069;28;20022;-88
2020/12/27 04:34:07;;;;;;;0.10;0.10;;;0.90;99.90;;;;;;4973785;28;20023;-89
2020/12/27 04:36:33;;;;;;;0.20;0.20;;;0.90;99.90;;;;;;4973570;28;20038;-88
2020/12/27 04:38:59;;;;;;;0.63;0.63;;;0.90;99.90;;;;;;4973038;28;20031;-88
2020/12/27 04:41:25;;;;;;;0.25;0.25;;;0.90;99.90;;;;;;4973542;28;20037;-87
2020/12/27 04:43:51;;;;;;;0.28;0.28;;;0.90;99.90;;;;;;4973396;28;20099;-89
2020/12/27 04:46:17;;;;;;;0.10;0.10;;;1.00;99.90;;;;;;4962187;28;20027;-89
2020/12/27 04:48:45;;;;;;;0.10;0.10;;;1.00;99.90;;;;;;4962122;28;20035;-89
2020/12/27 04:51:12;;;;;;;0.30;0.30;;;1.00;99.90;;;;;;4955518;28;20039;-88
2020/12/27 04:53:39;;;;;;;0.10;0.10;;;1.00;99.90;;;;;;4956120;28;20030;-88
2020/12/27 04:56:07;;;;;;;0.30;0.30;;;1.00;99.90;;;;;;4955949;28;20680;-89
2020/12/27 04:58:33;;;;;;;0.20;0.20;;;0.90;99.90;;;;;;4977524;28;20061;-89
2020/12/27 05:01:00;;;;;;;0.22;0.22;;;1.00;99.90;;;;;;4956581;28;20038;-88
2020/12/27 05:03:27;;;;;;;0.10;0.10;;;1.00;99.90;;;;;;4972637;28;20034;-88
2020/12/27 05:05:55;;;;;;;0.10;0.10;;;1.00;99.90;;;;;;4957187;28;20109;-90
2020/12/27 05:08:21;;;;;;;0.35;0.35;;;0.90;99.90;;;;;;4956997;28;20031;-88
2020/12/27 05:10:47;;;;;;;0.10;0.10;;;1.00;99.90;;;;;;4973330;28;20032;-88
2020/12/27 05:13:16;;;;;;;0.55;0.55;;;1.00;99.90;;;;;;4972381;28;20289;-88
2020/12/27 05:15:43;;;;;;;0.10;0.10;;;1.10;99.90;;;;;;4956575;28;20728;-87
2020/12/27 05:18:10;;;;;;;0.10;0.10;;;1.10;99.90;;;;;;4954876;28;20213;-88
2020/12/27 05:20:38;;;;;;;0.93;0.93;;;1.00;99.90;;;;;;4973892;28;20400;-87
2020/12/27 05:23:05;;;;;;;0.10;0.10;;;1.10;99.90;;;;;;4972355;28;20039;-88
2020/12/27 05:25:33;;;;;;;0.10;0.10;;;1.10;99.90;;;;;;4958636;28;20023;-88
2020/12/27 05:28:08;;;;;;;0.10;0.10;;;1.10;99.90;;;;;;4972346;28;20035;-88
2020/12/27 05:30:34;;;;;;;0.22;0.22;;;1.10;99.90;;;;;;4951067;28;20027;-88
2020/12/27 05:33:00;;;;;;;0.13;0.13;;;1.10;99.90;;;;;;4954447;28;20045;-88
2020/12/27 05:35:26;;;;;;;0.10;0.10;;;1.10;99.90;;;;;;4954709;28;20030;-87
2020/12/27 05:37:53;;;;;;;0.43;0.43;;;1.10;99.90;;;;;;4960218;28;20035;-87
2020/12/27 05:40:19;;;;;;;0.10;0.10;;;1.20;99.90;;;;;;4971509;28;20046;-88
2020/12/27 05:42:46;;;;;;;0.20;0.20;;;1.10;99.90;;;;;;4955783;28;20053;-88
2020/12/27 05:45:13;;;;;;;;;;;1.20;99.90;;;;;;4967289;28;20437;-89
2020/12/27 05:47:44;;;;;;;0.10;0.10;;;1.20;99.90;;;;;;4958245;28;20307;-89
2020/12/27 05:50:17;;;;;;;0.20;0.20;;;1.20;99.90;;;;;;4958783;28;20038;-89
2020/12/27 05:52:58;;;;;;;0.10;0.10;;;1.20;99.90;;;;;;4976859;28;20475;-88
2020/12/27 05:55:24;;;;;;;0.10;0.10;;;1.30;99.90;;;;;;4967859;28;20491;-88
2020/12/27 05:57:55;;;;;;;0.20;0.20;;;1.20;99.90;;;;;;4954803;28;20052;-87
2020/12/27 06:00:22;;;;;;;0.75;0.75;;;1.20;99.90;;;;;;4976290;28;20031;-88
2020/12/27 06:02:59;;;;;;;0.10;0.10;;;1.20;99.90;;;;;;4972259;28;20022;-88
2020/12/27 06:05:37;;;;;;;0.10;0.10;;;1.20;99.90;;;;;;4975312;28;20019;-87
2020/12/27 06:08:27;;;;;;;0.10;0.10;;;1.20;99.90;;;;;;4972086;28;20539;-88
2020/12/27 06:11:05;;;;;;;0.30;0.30;;;1.20;99.90;;;;;;4975756;28;20023;-89
2020/12/27 06:13:34;;;;;;;0.10;0.10;;;1.20;99.90;;;;;;4975047;28;20086;-88
2020/12/27 06:16:00;;;;;;;0.10;0.10;;;1.20;99.90;;;;;;4954515;28;20455;-87
2020/12/27 06:18:28;;;;;;;0.17;0.17;;;1.30;99.90;;;;;;4982876;28;20034;-87
2020/12/27 06:21:12;;;;;;;0.10;0.10;;;1.30;99.90;;;;;;4971631;28;20562;-88
2020/12/27 06:23:38;;;;;;;0.10;0.10;;;1.30;99.90;;;;;;4972566;28;20074;-88
2020/12/27 06:26:06;;;;;;;0.20;0.20;;;1.30;99.90;;;;;;4957089;28;20022;-85
2020/12/27 06:28:33;;;;;;;0.10;0.10;;;1.30;99.90;;;;;;4984160;28;20039;-87
2020/12/27 06:31:02;;;;;;;;;;;1.30;99.90;;;;;;4971868;28;20023;-89
2020/12/27 06:33:34;;;;;;;0.10;0.10;;;1.30;99.90;;;;;;4973039;28;20039;-89
2020/12/27 06:35:59;;;;;;;0.10;0.10;;;1.40;99.90;;;;;;4955231;28;20035;-88
2020/12/27 06:38:25;;;;;;;0.10;0.10;;;1.40;99.90;;;;;;4972057;28;20019;-88
2020/12/27 06:41:03;;;;;;;0.20;0.20;;;1.40;99.90;;;;;;4971288;28;20109;-89
2020/12/27 06:43:29;;;;;;;0.20;0.20;;;1.50;99.90;;;;;;4970460;28;20037;-90
2020/12/27 06:46:27;;;;;;;0.20;0.20;;;1.50;99.90;;;;;;4982579;28;20030;-90
2020/12/27 06:49:14;;;;;;;0.10;0.10;;;1.50;99.90;;;;;;4973603;28;20518;-91
2020/12/27 06:51:43;;;;;;;0.10;0.10;;;1.50;99.90;;;;;;4973277;28;20697;-87
2020/12/27 06:54:09;;;;;;;0.10;0.10;;;1.50;99.90;;;;;;4954272;28;20448;-87
2020/12/27 06:56:40;;;;;;;0.20;0.20;;;1.50;99.90;;;;;;4970412;28;20042;-88
2020/12/27 06:59:06;;;;;;;0.45;0.45;;;1.50;99.90;;;;;;4971202;28;20041;-86
2020/12/27 07:01:32;;;;;;;0.10;0.10;;;1.50;99.90;;;;;;4970549;28;20030;-87
2020/12/27 07:04:13;;;;;;;0.10;0.10;;;1.50;99.90;;;;;;4971703;28;20041;-85
2020/12/27 07:06:41;;;;;;;0.10;0.10;;;1.50;99.90;;;;;;4969635;28;20046;-87
2020/12/27 07:09:07;;;;;;;0.20;0.20;;;1.40;99.90;;;;;;4959671;28;20022;-88
2020/12/27 07:11:33;;;;;;;0.20;0.20;;;1.50;99.90;;;;;;4962025;28;20033;-88
2020/12/27 07:14:00;;;;;;;0.20;0.20;;;1.50;99.90;;;;;;4962844;28;20034;-87
2020/12/27 07:16:55;;;;;;;0.10;0.10;;;1.40;99.90;;;;;;4973262;28;20077;-87
2020/12/27 07:19:25;;;;;;;0.65;0.40;;;1.50;99.90;;;;;;4970496;28;20058;-88
2020/12/27 07:21:53;;;;;;;0.65;0.65;;;1.40;99.90;;;;;;4970167;28;20404;-88
2020/12/27 07:24:22;;;;;;;0.32;0.32;;;1.40;99.90;;;;;;4970559;28;20023;-88
2020/12/27 07:26:48;;;;;;;0.10;0.10;;;1.40;99.90;;;;;;4952886;28;20571;-89
2020/12/27 07:29:23;;;;;;;0.15;0.15;;;1.40;99.90;;;;;;4970572;28;20019;-89
2020/12/27 07:31:51;;;;;;;0.10;0.10;;;1.40;99.90;;;;;;4948819;28;20031;-88
2020/12/27 07:34:23;;;;;;;0.15;0.15;;;1.40;99.90;;;;;;4971067;28;20062;-87
2020/12/27 07:37:03;;;;;;;0.10;0.10;;;1.50;99.90;;;;;;4960831;28;20030;-88
2020/12/27 07:39:49;;;;;;;0.10;0.10;;;1.50;99.90;;;;;;4970037;28;20038;-88
2020/12/27 07:42:26;;;;;;;0.10;0.10;;;1.60;99.90;;;;;;4970971;28;20500;-88
2020/12/27 07:44:53;;;;;;;0.10;0.10;;;1.60;99.90;;;;;;4951931;28;20034;-88
2020/12/27 07:47:19;;;;;;;0.20;0.20;;;1.70;99.90;;;;;;4969995;28;20046;-87
2020/12/27 07:50:05;;;;;;;0.10;0.10;;;1.60;99.90;;;;;;4975118;28;20038;-88
2020/12/27 07:53:07;;;;;;;0.20;0.20;;;1.50;99.90;;;;;;4970373;28;20026;-88
2020/12/27 07:55:36;;;;;;;0.10;0.10;;;1.60;99.90;;;;;;4909418;29;20570;-86
2020/12/27 07:58:04;;;;;;;0.10;0.10;;;1.70;99.90;;;;;;4901487;29;20036;-94
2020/12/27 08:00:32;;;;;;;0.10;0.10;;;1.70;99.90;;;;;;4917396;29;20032;-88
2020/12/27 08:03:03;;;;;;;0.10;0.10;;;1.60;99.90;;;;;;4915988;29;20036;-89
2020/12/27 08:05:29;;;;;;;3.72;1.35;;;1.60;99.90;;;;;;4940589;29;20115;-86
2020/12/27 08:08:09;;;;;;;0.10;0.10;;;1.60;99.90;;;;;;4916410;29;20120;-87
2020/12/27 08:10:36;;;;;;;0.10;0.10;;;1.70;99.90;;;;;;4927993;29;20040;-86
2020/12/27 08:13:04;;;;;;;0.20;0.20;;;1.70;99.90;;;;;;4922573;29;20059;-87
2020/12/27 08:15:35;;;;;;;0.10;0.10;;;1.70;99.90;;;;;;4935184;29;20095;-87
2020/12/27 08:18:05;;;;;;;0.10;0.10;;;1.70;99.90;;;;;;4928402;29;20024;-86
2020/12/27 08:20:42;;;;;;;0.10;0.10;;;1.70;99.90;;;;;;4928494;29;20019;-86
2020/12/27 08:23:08;;;;;;;;;;;1.70;99.90;;;;;;4928647;29;20620;-87
2020/12/27 08:25:36;;;;;;;0.10;0.10;;;1.70;99.90;;;;;;4930058;29;19914;-87
2020/12/27 08:28:05;;;;;;;0.10;0.10;;;1.70;99.90;;;;;;4928514;29;20115;-88
2020/12/27 08:30:31;;;;;;;0.10;0.10;;;1.70;99.90;;;;;;4972862;28;20040;-88
2020/12/27 08:33:14;;;;;;;1.10;0.82;;;1.70;99.90;;;;;;4947859;28;20158;-87
2020/12/27 08:35:43;;;;;;;0.10;0.10;;;1.80;99.90;;;;;;4962651;28;20103;-87
2020/12/27 08:38:26;;;;;;;0.30;0.30;;;1.80;99.90;;;;;;4963390;28;20024;-88
2020/12/27 08:41:08;;;;;;;0.10;0.10;;;1.80;99.90;;;;;;4958698;28;20026;-86
2020/12/27 08:43:48;;;;;;;0.20;0.20;;;1.80;99.90;;;;;;4952000;28;20509;-88
2020/12/27 08:46:20;;;;;;;0.63;0.63;;;1.80;99.90;;;;;;4968914;28;20495;-87
2020/12/27 08:49:02;;;;;;;0.43;0.43;;;1.80;99.90;;;;;;4957274;28;20491;-87
2020/12/27 08:51:34;;;;;;;0.10;0.10;;;1.80;99.90;;;;;;4943518;28;20472;-86
2020/12/27 08:54:03;;;;;;;0.10;0.10;;;1.80;99.90;;;;;;4961801;28;20456;-86
2020/12/27 08:56:30;;;;;;;0.10;0.10;;;2.10;99.90;;;;;;4960113;28;20078;-87
2020/12/27 08:58:56;;;;;;;0.10;0.10;;;2.10;99.90;;;;;;4942760;28;20039;-87
2020/12/27 09:01:24;;;;;;;0.10;0.10;;;2.10;99.90;;;;;;4945236;28;20110;-87
2020/12/27 09:03:50;;;;;;;0.10;0.10;;;2.20;99.90;;;;;;4945167;28;20026;-85
2020/12/27 09:06:16;;;;;;;0.10;0.10;;;2.30;99.90;;;;;;4960030;28;20039;-85
2020/12/27 09:08:42;;;;;;;0.03;0.03;;;2.20;99.90;;;;;;4965814;28;20633;-85
2020/12/27 09:11:08;;;;;;;0.10;0.10;;;2.20;99.90;;;;;;4970684;28;20030;-86
2020/12/27 09:13:37;;;;;;;0.20;0.20;;;2.20;99.90;;;;;;4946486;28;20077;-89
2020/12/27 09:16:03;;;;;;;0.10;0.10;;;2.30;99.90;;;;;;4951688;28;20066;-86
2020/12/27 09:18:32;;;;;;;0.05;0.05;;;2.30;99.90;;;;;;4968420;28;20053;-89
2020/12/27 09:21:06;;;;;;;0.20;0.20;;;2.30;99.90;;;;;;4963533;28;20034;-87
2020/12/27 09:23:33;;;;;;;0.10;0.10;;;2.40;99.90;;;;;;4982094;28;20035;-88
2020/12/27 09:26:06;;;;;;;0.20;0.20;;;2.40;99.90;;;;;;4977285;28;20027;-86
2020/12/27 09:28:35;;;;;;;0.10;0.10;;;2.50;99.90;;;;;;4970380;28;20031;-88
2020/12/27 09:31:10;;;;;;;0.10;0.10;;;2.50;99.90;;;;;;4972326;28;20078;-87
2020/12/27 09:33:43;;;;;;;0.10;0.10;;;2.40;99.90;;;;;;4955240;28;20074;-88
2020/12/27 09:36:11;;;;;;;0.10;0.10;;;2.40;99.90;;;;;;4950754;28;20031;-87
2020/12/27 09:38:42;;;;;;;0.10;0.10;;;2.40;99.90;;;;;;4955604;28;20027;-87
2020/12/27 09:41:12;;;;;;;0.10;0.10;;;2.50;99.90;;;;;;4971054;28;20102;-86
2020/12/27 09:43:50;;;;;;;0.20;0.20;;;2.60;99.90;;;;;;4950100;28;20731;-88
2020/12/27 09:46:46;;;;;;;0.10;0.10;;;2.50;99.90;;;;;;4953740;28;20095;-87
2020/12/27 09:49:24;;;;;;;0.10;0.10;;;2.60;99.90;;;;;;4964640;28;20038;-88
2020/12/27 09:52:07;;;;;;;0.55;0.55;;;2.50;99.90;;;;;;4967425;28;20110;-87
2020/12/27 09:54:34;;;;;;;0.10;0.10;;;2.60;99.90;;;;;;4967528;28;20041;-87
2020/12/27 09:57:09;;;;;;;;;;;2.50;99.90;;;;;;4971002;28;20035;-87
2020/12/27 09:59:36;;;;;;;0.10;0.10;;;2.50;99.90;;;;;;4965534;28;19907;-87
2020/12/27 10:02:01;;;;;;;0.10;0.10;;;2.50;99.90;;;;;;4949685;28;20062;-87
2020/12/27 10:04:27;;;;;;;0.00;0.00;;;2.60;99.90;;;;;;4957576;28;20081;-87
2020/12/27 10:06:53;;;;;;;0.10;0.10;;;2.60;99.90;;;;;;4949619;28;20055;-87
2020/12/27 10:09:19;;;;;;;0.10;0.10;;;2.60;99.90;;;;;;4974079;28;20027;-87
2020/12/27 10:11:45;;;;;;;0.17;0.17;;;2.50;99.90;;;;;;4951852;28;20030;-87
2020/12/27 10:14:11;;;;;;;0.47;0.47;;;2.60;99.90;;;;;;4947952;28;20742;-87
2020/12/27 10:16:37;;;;;;;2.70;0.53;;;2.60;99.90;;;;;;4956863;28;20030;-88
2020/12/27 10:19:03;;;;;;;0.30;0.30;;;2.50;99.90;;;;;;4946295;28;20274;-89
2020/12/27 10:21:29;;;;;;;0.32;0.32;;;2.50;99.90;;;;;;4965693;28;20508;-88
2020/12/27 10:23:56;;;;;;;0.03;0.03;;;2.50;99.90;;;;;;4964087;28;20054;-89
2020/12/27 10:26:22;;;;;;;0.10;0.10;;;2.60;99.90;;;;;;4970956;28;20030;-91
2020/12/27 10:28:48;;;;;;;0.10;0.10;;;2.50;99.90;;;;;;4954243;28;20086;-91
2020/12/27 10:31:13;;;;;;;0.10;0.10;;;2.50;99.90;;;;;;4954916;28;20098;-90
2020/12/27 10:33:40;;;;;;;0.10;0.10;;;2.40;99.90;;;;;;4952284;28;20061;-90
2020/12/27 10:36:06;;;;;;;0.30;0.30;;;2.40;99.90;;;;;;4967545;28;20038;-90
2020/12/27 10:38:32;;;;;;;0.10;0.10;;;2.40;99.90;;;;;;4952102;28;20027;-90
2020/12/27 10:41:00;;;;;;;0.08;0.08;;;2.40;99.90;;;;;;4960367;28;20046;-90
2020/12/27 10:43:26;;;;;;;0.35;0.35;;;2.50;99.90;;;;;;4972260;28;20041;-91
2020/12/27 10:46:02;;;;;;;0.10;0.10;;;2.30;99.90;;;;;;4980498;28;20019;-90
2020/12/27 10:48:28;;;;;;;0.30;0.30;;;2.40;99.90;;;;;;4966355;28;20560;-90
2020/12/27 10:50:54;;;;;;;0.10;0.10;;;2.40;99.90;;;;;;4955210;28;20042;-87
2020/12/27 10:53:20;;;;;;;0.98;0.73;;;2.40;99.90;;;;;;4971844;28;20034;-84
2020/12/27 10:55:49;;;;;;;0.10;0.10;;;2.40;99.90;;;;;;4968929;28;20032;-84
2020/12/27 10:58:16;;;;;;;0.10;0.10;;;2.50;99.90;;;;;;4965519;28;20092;-85
2020/12/27 11:00:43;;;;;;;0.10;0.10;;;2.70;99.90;;;;;;4962894;28;20499;-85
2020/12/27 11:03:09;;;;;;;0.13;0.13;;;2.80;99.90;;;;;;4959394;28;20040;-84
2020/12/27 11:05:35;;;;;;;0.20;0.20;;;2.60;99.90;;;;;;4974676;28;20030;-87
2020/12/27 11:08:01;;;;;;;0.10;0.10;;;2.90;99.90;;;;;;4975108;28;20027;-88
2020/12/27 11:10:27;;;;;;;0.10;0.10;;;2.90;99.90;;;;;;4975089;28;20037;-89
2020/12/27 11:12:53;;;;;;;0.03;0.03;;;2.80;99.90;;;;;;4975213;28;20760;-89
2020/12/27 11:15:18;;;;;;;0.10;0.10;;;2.70;99.90;;;;;;4969704;28;20034;-89
2020/12/27 11:17:44;;;;;;;0.10;0.10;;;2.60;99.90;;;;;;4958148;28;20035;-90
2020/12/27 11:20:13;;;;;;;0.10;0.10;;;2.80;99.90;;;;;;4962662;28;20494;-89
2020/12/27 11:22:41;;;;;;;0.10;0.10;;;2.80;99.90;;;;;;4959885;28;20555;-92
2020/12/27 11:25:07;;;;;;;0.10;0.10;;;2.70;99.90;;;;;;4962602;28;20034;-90
2020/12/27 11:27:33;;;;;;;0.10;0.10;;;2.60;99.90;;;;;;4981158;28;20027;-92
2020/12/27 11:29:58;;;;;;;0.25;0.25;;;2.70;99.90;;;;;;4966148;28;20600;-92
2020/12/27 11:32:24;;;;;;;0.10;0.10;;;3.00;99.90;;;;;;4980795;28;20035;-93
2020/12/27 11:34:50;;;;;;;0.10;0.10;;;3.00;99.90;;;;;;4959621;28;20154;-86
2020/12/27 11:37:16;;;;;;;0.10;0.10;;;3.00;99.90;;;;;;4975497;28;20497;-86
2020/12/27 11:39:42;;;;;;;0.30;0.30;;;2.60;99.90;;;;;;4972847;28;20137;-87
2020/12/27 11:42:08;;;;;;;1.33;0.73;;;2.50;99.90;;;;;;4969503;28;20063;-85
2020/12/27 11:44:34;;;;;;;0.10;0.10;;;2.50;99.90;;;;;;4975230;28;20023;-85
2020/12/27 11:47:03;;;;;;;0.20;0.20;;;2.50;99.90;;;;;;4972196;28;20030;-88
2020/12/27 11:49:29;;;;;;;0.10;0.10;;;2.40;18.20;;;;;;4952050;28;20034;-88
2020/12/27 11:51:55;;;;;;;0.10;0.10;;;2.80;2.90;;;;;;4939447;28;20431;-88
2020/12/27 11:54:21;;;;;;;0.10;0.10;;;2.80;1.00;;;;;;4969903;28;20121;-87
2020/12/27 11:56:47;;;;;;;0.35;0.35;;;2.80;1.00;;;;;;4968948;28;20064;-88
2020/12/27 11:59:13;;;;;;;0.63;0.63;;;3.10;99.90;;;;;;4957706;28;20031;-88
2020/12/27 12:01:39;;;;;;;0.10;0.10;;;3.10;99.90;;;;;;4951364;28;20041;-88
2020/12/27 12:04:04;;;;;;;0.10;0.10;;;2.90;99.90;;;;;;4956327;28;20404;-89
2020/12/27 12:06:30;;;;;;;0.40;0.40;;;3.20;99.90;;;;;;4974970;28;20047;-89
2020/12/27 12:08:57;;;;;;;0.15;0.15;;;3.30;99.90;;;;;;4969388;28;20094;-89
2020/12/27 12:11:23;;;;;;;0.35;0.35;;;3.40;99.90;;;;;;4969534;28;20203;-89
2020/12/27 12:13:50;;;;;;;0.10;0.10;;;3.30;99.90;;;;;;4970321;28;20031;-88
2020/12/27 12:16:21;;;;;;;0.30;0.30;;;3.10;99.90;;;;;;4953182;28;20125;-88
2020/12/27 12:18:47;;;;;;;0.10;0.10;;;3.00;99.90;;;;;;4969415;28;20086;-89
2020/12/27 12:21:13;;;;;;;0.00;0.00;;;3.20;99.90;;;;;;4978448;28;20040;-88
2020/12/27 12:23:40;;;;;;;0.10;0.10;;;3.10;99.90;;;;;;4953703;28;20039;-88
2020/12/27 12:26:06;;;;;;;0.63;0.63;;;3.20;99.90;;;;;;4975353;28;20023;-88
2020/12/27 12:28:45;;;;;;;0.25;0.25;;;3.20;99.90;;;;;;4951306;28;20400;-88
2020/12/27 12:31:16;;;;;;;0.10;0.10;;;3.20;99.90;;;;;;4961146;28;20026;-89
2020/12/27 12:33:43;;;;;;;0.47;0.40;;;3.10;99.90;;;;;;4973227;28;20086;-88
2020/12/27 12:36:11;;;;;;;;;;;3.20;99.90;;;;;;4968627;28;20039;-91
2020/12/27 12:38:38;;;;;;;0.28;0.28;;;3.30;99.90;;;;;;4946513;28;20324;-88
2020/12/27 12:41:05;;;;;;;0.10;0.10;;;3.50;99.90;;;;;;4962271;28;20041;-89
2020/12/27 12:43:31;;;;;;;0.10;0.10;;;3.60;99.90;;;;;;4962742;28;20027;-91
2020/12/27 12:46:01;;;;;;;0.10;0.10;;;3.80;99.90;;;;;;4965607;28;20109;-87
2020/12/27 12:48:27;;;;;;;1.35;0.77;;;3.80;99.90;;;;;;4974314;28;20030;-87
2020/12/27 12:50:53;;;;;;;0.75;0.75;;;3.90;99.90;;;;;;4974035;28;20026;-86
2020/12/27 12:53:18;;;;;;;0.10;0.10;;;3.80;99.90;;;;;;4959903;28;20034;-87
2020/12/27 12:55:44;;;;;;;0.20;0.20;;;4.00;99.90;;;;;;4964279;28;20042;-86
2020/12/27 12:58:10;;;;;;;0.30;0.30;;;4.10;99.90;;;;;;4961961;28;20030;-86
2020/12/27 13:00:36;;;;;;;0.10;0.10;;;4.30;99.90;;;;;;4963843;28;20415;-88
2020/12/27 13:03:02;;;;;;;0.00;0.00;;;4.30;99.90;;;;;;4977763;28;20033;-89
2020/12/27 13:05:28;;;;;;;0.15;0.15;;;4.30;99.90;;;;;;4967031;28;20027;-89
2020/12/27 13:07:54;;;;;;;0.35;0.35;;;4.40;99.90;;;;;;4980352;28;20598;-88